Flight Track Log - Related Links

Times and Time Zones

All times are in EDT time to prevent confusion due to time zone crossing. See the WBR2634 flight status page for this flight to view local times or setup timezone preferences in your user account.

Time Position Orientation Groundspeed Altitude Reporting Facility
EDT Latitude Longitude Course Direction KTS km/h feet Rate Location/Type
Mon 17:44:06 40.7714 -91.0658 73° East 115 212 2,500  Level Chicago Center
Mon 17:45:08 40.7806 -91.0189 76° East 130 241 3,300 774 Climbing Chicago Center
Mon 17:46:00 40.8667 -90.7600 90° East  Level FlightAware Approximate
Mon 17:46:10 40.7936 -90.9708 70° East 134 248 4,100  Level Chicago Center
Mon 17:47:00 40.8794 -90.6990 72° East  Level FlightAware Approximate
Mon 17:47:12 40.8075 -90.9206 70° East 141 261 4,700  Level Chicago Center
Mon 17:48:00 40.8938 -90.6382 73° East  Level FlightAware Approximate
Mon 17:48:15 40.8250 -90.8578 70° East 149 275 5,500  Level Chicago Center
Mon 17:49:00 40.9080 -90.5772 73° East  Level FlightAware Approximate
Mon 17:49:17 40.8400 -90.8033 70° East 156 290 6,200  Level Chicago Center
Mon 17:50:19 40.8556 -90.7461 70° East 163 303 6,800 532 Climbing Chicago Center
Mon 17:51:21 40.8719 -90.6872 70° East 169 312 7,300 532 Climbing Chicago Center
Mon 17:52:23 40.8869 -90.6289 71° East 169 312 7,900 387 Climbing Chicago Center
Mon 17:53:25 40.9025 -90.5664 72° East 176 327 8,100 48 Climbing Chicago Center
Mon 17:54:27 40.9256 -90.4858 69° East 191 354 8,000 242 Descending Chicago Center
Mon 17:55:29 40.9433 -90.4206 70° East 190 352 8,600 484 Climbing Chicago Center
Mon 17:56:31 40.9586 -90.3589 72° East 179 332 9,000 194 Climbing Chicago Center
Mon 17:57:33 40.9758 -90.2933 71° East 184 341 9,000 48 Level Chicago Center
Mon 17:58:35 40.9967 -90.2239 68° East 198 367 9,100  Climbing Chicago Center
Mon 17:59:37 41.0169 -90.1572 68° East 197 365 9,000 -97 Descending Chicago Center
Mon 18:00:39 41.0322 -90.0931 72° East 188 348 8,900  Descending Chicago Center
Mon 18:01:41 41.0506 -90.0175 72° East 181 335 9,000 48 Climbing Chicago Center
Mon 18:02:44 41.0656 -89.9539 73° East 180 333 9,000  Level Chicago Center
Mon 18:03:46 41.0831 -89.8914 70° East 180 333 9,000 -48 Level Chicago Center
Mon 18:04:48 41.0994 -89.8283 71° East 180 333 8,900  Descending Chicago Center
Mon 18:05:50 41.1153 -89.7656 71° East 179 332 9,000 48 Climbing Chicago Center
Mon 18:06:52 41.1325 -89.7033 70° East 179 332 9,000 -48 Level Chicago Center
Mon 18:07:54 41.1483 -89.6414 71° East 178 330 8,900 -48 Descending Chicago Center
Mon 18:08:56 41.1694 -89.5672 69° East 179 332 8,900 48 Level Chicago Center
Mon 18:09:58 41.1958 -89.5133 57° Northeast 175 323 9,000 48 Climbing Chicago Center
Mon 18:11:00 41.2222 -89.4578 58° Northeast 176 327 9,000 -48 Level Chicago Center
Mon 18:12:02 41.2481 -89.4017 59° Northeast 178 330 8,900  Descending Chicago Center
Mon 18:13:04 41.2739 -89.3464 58° Northeast 176 327 9,000 48 Climbing Chicago Center
Mon 18:14:06 41.2989 -89.2892 60° Northeast 178 330 9,000 -48 Level Chicago Center
Mon 18:15:08 41.3328 -89.2256 55° Northeast 177 328 8,900  Descending Chicago Center
Mon 18:16:10 41.3622 -89.1694 55° Northeast 176 327 9,000  Climbing Chicago Center
Mon 18:17:13 41.3875 -89.1133 59° Northeast 178 330 8,900 -48 Descending Chicago Center
Mon 18:18:15 41.4131 -89.0569 59° Northeast 180 333 8,900 48 Level Chicago Center
Mon 18:19:17 41.4392 -89.0044 56° Northeast 175 323 9,000  Climbing Chicago Center
Mon 18:20:19 41.4633 -88.9478 60° Northeast 176 327 8,900 -145 Descending Chicago Center
Mon 18:21:21 41.4917 -88.8781 62° Northeast 180 333 8,700 -242 Descending Chicago Center
Mon 18:22:23 41.5192 -88.8225 57° Northeast 181 335 8,400 -387 Descending Chicago Center
Mon 18:23:25 41.5450 -88.7647 59° Northeast 183 340 7,900 -242 Descending Chicago Center
Mon 18:24:27 41.5689 -88.7044 62° Northeast 185 343 7,900  Level Chicago Center
Mon 18:25:29 41.5961 -88.6525 55° Northeast 175 323 7,900  Level Chicago Center
Mon 18:26:32 41.6172 -88.5953 64° Northeast 173 320 7,900  Level Chicago Center
Mon 18:27:34 41.6417 -88.5233 66° East 177 328 7,900 48 Level Chicago Center
Mon 18:28:36 41.6622 -88.4664 64° Northeast 173 320 8,000 48 Climbing Chicago Center
Mon 18:29:38 41.6822 -88.4072 66° East 174 322 8,000  Level Chicago Center
Mon 18:30:40 41.7031 -88.3494 64° Northeast 174 322 8,000 -194 Level Chicago Center
Mon 18:31:42 41.7322 -88.2994 52° Northeast 172 319 7,600 -435 Descending Chicago Center
Mon 18:32:44 41.7647 -88.2494 49° Northeast 177 328 7,100 -290 Descending Chicago Center
Mon 18:33:46 41.8036 -88.1886 49° Northeast 179 332 7,000  Descending Chicago Center
Mon 18:34:48 41.8394 -88.1544 35° Northeast 175 323 7,100 48 Climbing Chicago Center
Mon 18:35:50 41.8839 -88.1586 356° North 163 303 7,100  Level Chicago Center
Mon 18:36:52 41.9306 -88.1611 358° North 166 307 7,100  Level Chicago Center
Mon 18:37:54 41.9808 -88.1622 359° North 178 330 7,100 -484 Level Chicago Center
Mon 18:38:56 42.0372 -88.1769 349° North 175 323 6,100 -871 Descending Chicago Center
Mon 18:39:58 42.0847 -88.1956 344° North 179 332 5,300 -774 Descending Chicago Center
Mon 18:41:00 42.1078 -88.1361 62° Northeast 193 357 4,500 -625 Descending Chicago Center
Mon 18:41:34 42.1000 -88.1000 106° East 164 304 4,300 -540 Descending Chicago TRACON
Mon 18:42:40 42.0833 -88.0333 109° East 156 290 3,600 -952 Descending Chicago TRACON
Mon 18:43:40 42.0500 -88.0000 143° Southeast 148 274 2,300 -1,000 Descending Chicago TRACON
Mon 18:44:34 42.0333 -87.9667 124° Southeast 125 232 1,700 -700 Descending Chicago TRACON
Mon 18:45:40 42.0000 -87.9333 143° Southeast 115 212 900 -727 Descending Chicago TRACON
Mon 18:47:00 41.9817 -87.9067 111° Southeast  Level Estimated
Mon 18:54:00 41.9817 -87.9067 111° Southeast  Level Estimated

Login

Don't have an account? Register now (free) for customized features, flight alerts, and more!